Time;durP1;ratioP1;P1;durP2;ratioP2;P2;SDS_P1;SDS_P2;PMS_P1;PMS_P2;Temp;Humidity;BMP_temperature;BMP_pressure;BME280_temperature;BME280_humidity;BME280_pressure;Samples;Min_cycle;Max_cycle;Signal;HPM_P1;HPM_P2
2023/03/15 00:01:07;;;;;;;;;;;;;;;;;;5076212;28;6963;-66
2023/03/15 00:03:36;;;;;;;;;;;;;;;;;;5076318;28;7412;-66
2023/03/15 00:06:02;;;;;;;;;;;;;;;;;;5076060;28;7302;-66
2023/03/15 00:08:28;;;;;;;;;;;;;;;;;;5076106;28;7161;-66
2023/03/15 00:10:54;;;;;;;;;;;;;;;;;;5076658;28;7137;-66
2023/03/15 00:13:19;;;;;;;;;;;;;;;;;;5075994;28;7038;-66
2023/03/15 00:16:00;;;;;;;;;;;;;;;;;;5076521;28;7241;-66
2023/03/15 00:18:26;;;;;;;;;;;;;;;;;;5076136;28;7161;-66
2023/03/15 00:20:51;;;;;;;;;;;;;;;;;;5075853;28;6851;-66
2023/03/15 00:23:17;;;;;;;;;;;;;;;;;;5075914;28;7454;-66
2023/03/15 00:25:44;;;;;;;;;;;;;;;;;;5076184;28;7322;-66
2023/03/15 00:28:28;;;;;;;;;;;;;;;;;;5075272;28;7100;-66
2023/03/15 00:33:57;;;;;;;;;;;;;;;;;;5075282;28;6751;-66
2023/03/15 00:36:24;;;;;;;;;;;;;;;;;;5075559;28;7050;-66
2023/03/15 00:45:00;;;;;;;;;;;;;;;;;;5075203;28;6684;-66
2023/03/15 00:47:26;;;;;;;;;;;;;;;;;;5075377;28;6993;-66
2023/03/15 00:52:26;;;;;;;;;;;;;;;;;;5117512;23;6803;-62
2023/03/15 00:54:53;;;;;;;;;;;;;;;;;;5037883;28;8676;-62
2023/03/15 01:00:45;;;;;;;;;;;;;;;;;;5055213;28;6971;-62
2023/03/15 01:03:11;;;;;;;;;;;;;;;;;;5054793;28;9008;-62
2023/03/15 01:05:47;;;;;;;;;;;;;;;;;;5057647;28;8221;-62
2023/03/15 01:08:13;;;;;;;;;;;;;;;;;;5054853;28;6920;-62
2023/03/15 01:13:42;;;;;;;;;;;;;;;;;;5054509;28;7485;-62
2023/03/15 01:16:11;;;;;;;;;;;;;;;;;;5057301;28;7147;-62
2023/03/15 01:18:36;;;;;;;;;;;;;;;;;;5054971;28;7333;-62
2023/03/15 01:21:06;;;;;;;;;;;;;;;;;;5055399;28;7361;-62
2023/03/15 01:23:31;;;;;;;;;;;;;;;;;;5055967;28;6999;-62
2023/03/15 01:26:05;;;;;;;;;;;;;;;;;;5057830;28;6848;-62
2023/03/15 01:34:38;;;;;;;;;;;;;;;;;;5057019;28;6965;-63
2023/03/15 01:37:05;;;;;;;;;;;;;;;;;;5055389;28;7010;-62
2023/03/15 01:39:31;;;;;;;;;;;;;;;;;;5056268;28;7194;-63
2023/03/15 01:42:15;;;;;;;;;;;;;;;;;;5055392;28;6907;-63
2023/03/15 01:44:49;;;;;;;;;;;;;;;;;;5054993;28;7181;-62
2023/03/15 01:47:27;;;;;;;;;;;;;;;;;;5054641;28;7026;-62
2023/03/15 01:50:06;;;;;;;;;;;;;;;;;;5055025;28;6946;-62
2023/03/15 01:52:36;;;;;;;;;;;;;;;;;;5054103;28;6811;-62
2023/03/15 01:55:09;;;;;;;;;;;;;;;;;;5055636;28;7089;-63
2023/03/15 01:57:40;;;;;;;;;;;;;;;;;;5057265;28;7144;-63
2023/03/15 02:00:10;;;;;;;;;;;;;;;;;;5056195;28;7125;-62
2023/03/15 02:02:39;;;;;;;;;;;;;;;;;;5055560;28;7123;-63
2023/03/15 02:05:19;;;;;;;;;;;;;;;;;;5055120;28;7061;-63
2023/03/15 02:07:49;;;;;;;;;;;;;;;;;;5055705;28;7190;-63
2023/03/15 02:10:43;;;;;;;;;;;;;;;;;;5055465;28;7082;-62
2023/03/15 02:13:18;;;;;;;;;;;;;;;;;;5054423;28;7103;-62
2023/03/15 02:15:48;;;;;;;;;;;;;;;;;;5056874;28;7241;-63
2023/03/15 02:18:20;;;;;;;;;;;;;;;;;;5056043;28;7410;-62
2023/03/15 02:20:45;;;;;;;;;;;;;;;;;;5054891;28;7152;-63
2023/03/15 02:23:20;;;;;;;;;;;;;;;;;;5055420;28;7098;-67
2023/03/15 02:25:46;;;;;;;;;;;;;;;;;;5060715;28;6867;-63
2023/03/15 02:28:14;;;;;;;;;;;;;;;;;;5057960;28;7063;-63
2023/03/15 02:30:40;;;;;;;;;;;;;;;;;;5057873;28;7355;-63
2023/03/15 02:33:20;;;;;;;;;;;;;;;;;;5060194;28;7003;-63
2023/03/15 02:35:46;;;;;;;;;;;;;;;;;;5058077;28;6928;-67
2023/03/15 02:38:28;;;;;;;;;;;;;;;;;;5058340;28;6974;-67
2023/03/15 02:40:54;;;;;;;;;;;;;;;;;;5060957;28;6850;-67
2023/03/15 02:43:24;;;;;;;;;;;;;;;;;;5060902;28;6872;-67
2023/03/15 02:45:50;;;;;;;;;;;;;;;;;;5060794;28;7219;-67
2023/03/15 02:51:21;;;;;;;;;;;;;;;;;;5058456;28;6687;-67
2023/03/15 02:53:57;;;;;;;;;;;;;;;;;;5058265;28;7317;-67
2023/03/15 02:56:23;;;;;;;;;;;;;;;;;;5057507;28;7148;-67
2023/03/15 02:58:49;;;;;;;;;;;;;;;;;;5059428;28;7330;-67
2023/03/15 03:01:16;;;;;;;;;;;;;;;;;;5058099;28;7173;-67
2023/03/15 03:03:58;;;;;;;;;;;;;;;;;;5057263;28;7318;-67
2023/03/15 03:06:24;;;;;;;;;;;;;;;;;;5058844;28;7071;-67
2023/03/15 03:08:49;;;;;;;;;;;;;;;;;;5057986;28;7067;-67
2023/03/15 03:14:18;;;;;;;;;;;;;;;;;;5036848;28;6977;-67
2023/03/15 03:16:44;;;;;;;;;;;;;;;;;;5037018;28;7458;-67
2023/03/15 03:19:12;;;;;;;;;;;;;;;;;;5037043;28;8214;-67
2023/03/15 03:21:38;;;;;;;;;;;;;;;;;;5036801;28;7165;-67
2023/03/15 03:24:09;;;;;;;;;;;;;;;;;;5034379;28;7150;-67
2023/03/15 03:26:36;;;;;;;;;;;;;;;;;;5017924;28;7142;-67
2023/03/15 03:29:06;;;;;;;;;;;;;;;;;;5018437;28;7310;-67
2023/03/15 03:31:34;;;;;;;;;;;;;;;;;;5020302;28;7351;-67
2023/03/15 03:34:08;;;;;;;;;;;;;;;;;;5035054;28;7089;-67
2023/03/15 03:36:34;;;;;;;;;;;;;;;;;;5037809;28;7117;-67
2023/03/15 03:39:13;;;;;;;;;;;;;;;;;;5037828;28;7116;-67
2023/03/15 03:41:39;;;;;;;;;;;;;;;;;;5037771;28;8417;-67
2023/03/15 03:44:09;;;;;;;;;;;;;;;;;;5036515;28;7038;-67
2023/03/15 03:46:35;;;;;;;;;;;;;;;;;;5038170;28;7219;-67
2023/03/15 03:49:14;;;;;;;;;;;;;;;;;;5037658;28;7131;-67
2023/03/15 03:51:45;;;;;;;;;;;;;;;;;;5038388;28;6828;-67
2023/03/15 03:54:10;;;;;;;;;;;;;;;;;;5039426;28;6910;-67
2023/03/15 03:56:45;;;;;;;;;;;;;;;;;;5038737;28;7346;-67
2023/03/15 03:59:12;;;;;;;;;;;;;;;;;;5039112;28;8520;-67
2023/03/15 04:01:40;;;;;;;;;;;;;;;;;;5038639;28;6903;-67
2023/03/15 04:10:14;;;;;;;;;;;;;;;;;;5036720;28;6992;-63
2023/03/15 04:12:42;;;;;;;;;;;;;;;;;;5036547;28;7147;-63
2023/03/15 04:15:08;;;;;;;;;;;;;;;;;;5036068;28;6960;-63
2023/03/15 04:17:40;;;;;;;;;;;;;;;;;;5037856;28;7223;-67
2023/03/15 04:20:11;;;;;;;;;;;;;;;;;;5039304;28;6855;-67
2023/03/15 04:25:50;;;;;;;;;;;;;;;;;;5036472;28;6938;-67
2023/03/15 04:28:18;;;;;;;;;;;;;;;;;;5036272;28;7111;-68
2023/03/15 04:31:00;;;;;;;;;;;;;;;;;;5035508;28;7016;-67
2023/03/15 04:33:25;;;;;;;;;;;;;;;;;;5035485;28;7168;-67
2023/03/15 04:35:53;;;;;;;;;;;;;;;;;;5035621;28;6953;-67
2023/03/15 04:38:25;;;;;;;;;;;;;;;;;;5036591;28;7401;-67
2023/03/15 04:44:02;;;;;;;;;;;;;;;;;;5035968;28;7016;-67
2023/03/15 04:46:30;;;;;;;;;;;;;;;;;;5035563;28;7048;-67
2023/03/15 04:49:04;;;;;;;;;;;;;;;;;;5036647;28;7069;-67
2023/03/15 04:51:40;;;;;;;;;;;;;;;;;;5036442;28;7215;-67
2023/03/15 04:54:06;;;;;;;;;;;;;;;;;;5037699;28;7301;-67
2023/03/15 04:56:34;;;;;;;;;;;;;;;;;;5033676;28;6894;-62
2023/03/15 04:59:00;;;;;;;;;;;;;;;;;;5035609;28;7180;-63
2023/03/15 05:01:33;;;;;;;;;;;;;;;;;;5036124;28;7031;-63
2023/03/15 05:03:59;;;;;;;;;;;;;;;;;;5036976;28;6924;-62
2023/03/15 05:09:28;;;;;;;;;;;;;;;;;;5035268;28;6998;-67
2023/03/15 05:11:54;;;;;;;;;;;;;;;;;;5038521;28;7420;-67
2023/03/15 05:14:19;;;;;;;;;;;;;;;;;;5037987;28;7314;-67
2023/03/15 05:16:48;;;;;;;;;;;;;;;;;;5036336;28;7410;-67
2023/03/15 05:19:13;;;;;;;;;;;;;;;;;;5037137;28;7146;-67
2023/03/15 05:21:39;;;;;;;;;;;;;;;;;;5035945;28;7203;-67
2023/03/15 05:24:04;;;;;;;;;;;;;;;;;;5035839;28;7130;-67
2023/03/15 05:26:30;;;;;;;;;;;;;;;;;;5037945;28;6911;-67
2023/03/15 05:28:55;;;;;;;;;;;;;;;;;;5036373;28;7073;-67
2023/03/15 05:31:56;;;;;;;;;;;;;;;;;;5034798;28;7387;-67
2023/03/15 05:34:23;;;;;;;;;;;;;;;;;;5037945;28;6833;-67
2023/03/15 05:36:54;;;;;;;;;;;;;;;;;;5037133;28;7338;-67
2023/03/15 05:39:41;;;;;;;;;;;;;;;;;;5035949;28;6868;-67
2023/03/15 05:42:08;;;;;;;;;;;;;;;;;;5034640;28;7431;-67
2023/03/15 05:44:46;;;;;;;;;;;;;;;;;;5035047;28;6966;-67
2023/03/15 05:47:12;;;;;;;;;;;;;;;;;;5035975;28;7159;-67
2023/03/15 05:49:47;;;;;;;;;;;;;;;;;;5034324;28;6917;-67
2023/03/15 05:52:12;;;;;;;;;;;;;;;;;;5035398;28;7352;-67
2023/03/15 05:54:54;;;;;;;;;;;;;;;;;;5035163;28;7491;-67
2023/03/15 05:57:20;;;;;;;;;;;;;;;;;;5034631;28;7209;-63
2023/03/15 05:59:46;;;;;;;;;;;;;;;;;;5041321;28;7024;-62
2023/03/15 06:02:11;;;;;;;;;;;;;;;;;;5039386;28;7088;-62
2023/03/15 06:04:37;;;;;;;;;;;;;;;;;;5038569;28;7147;-62
2023/03/15 06:07:06;;;;;;;;;;;;;;;;;;5040956;28;7047;-62
2023/03/15 06:09:33;;;;;;;;;;;;;;;;;;5039304;28;7598;-62
2023/03/15 06:11:59;;;;;;;;;;;;;;;;;;5040553;28;6988;-62
2023/03/15 06:14:26;;;;;;;;;;;;;;;;;;5039737;28;7066;-62
2023/03/15 06:16:53;;;;;;;;;;;;;;;;;;5040688;28;7042;-62
2023/03/15 06:22:08;;;;;;;;;;;;;;;;;;5040485;28;7046;-69
2023/03/15 06:24:37;;;;;;;;;;;;;;;;;;5040741;28;7231;-62
2023/03/15 06:27:05;;;;;;;;;;;;;;;;;;5039813;28;7273;-65
2023/03/15 06:32:56;;;;;;;;;;;;;;;;;;5040376;28;6687;-66
2023/03/15 06:35:22;;;;;;;;;;;;;;;;;;5038253;28;6911;-65
2023/03/15 06:37:51;;;;;;;;;;;;;;;;;;5053794;28;7030;-66
2023/03/15 06:40:17;;;;;;;;;;;;;;;;;;5166040;22;7524;-66
2023/03/15 06:42:43;;;;;;;;;;;;;;;;;;5056472;28;7063;-67
2023/03/15 06:48:12;;;;;;;;;;;;;;;;;;5054739;28;6978;-66
2023/03/15 06:54:00;;;;;;;;;;;;;;;;;;5037178;28;6910;-67
2023/03/15 06:56:26;;;;;;;;;;;;;;;;;;5037418;28;7014;-67
2023/03/15 06:58:51;;;;;;;;;;;;;;;;;;5037618;28;6938;-67
2023/03/15 07:01:17;;;;;;;;;;;;;;;;;;5233123;23;7382;-70
2023/03/15 07:09:48;;;;;;;;;;;;;;;;;;5056694;28;6898;-71
2023/03/15 07:12:14;;;;;;;;;;;;;;;;;;5056862;28;7025;-70
2023/03/15 07:14:40;;;;;;;;;;;;;;;;;;5054943;28;6939;-70
2023/03/15 07:20:09;;;;;;;;;;;;;;;;;;5057010;28;6998;-70
2023/03/15 07:22:35;;;;;;;;;;;;;;;;;;5053146;28;6935;-71
2023/03/15 07:25:06;;;;;;;;;;;;;;;;;;5055686;28;7070;-72
2023/03/15 07:27:32;;;;;;;;;;;;;;;;;;5057546;28;7056;-75
2023/03/15 07:30:07;;;;;;;;;;;;;;;;;;5057914;28;7230;-72
2023/03/15 07:32:32;;;;;;;;;;;;;;;;;;5056851;28;7126;-71
2023/03/15 07:35:12;;;;;;;;;;;;;;;;;;5056811;28;7188;-71
2023/03/15 07:37:41;;;;;;;;;;;;;;;;;;5057442;28;6934;-71
2023/03/15 07:46:39;;;;;;;;;;;;;;;;;;5039329;28;6691;-68
2023/03/15 07:49:04;;;;;;;;;;;;;;;;;;5048609;28;7225;-68
2023/03/15 07:54:34;;;;;;;;;;;;;;;;;;5053594;28;6926;-68
2023/03/15 07:57:00;;;;;;;;;;;;;;;;;;5056427;28;7130;-68
2023/03/15 07:59:33;;;;;;;;;;;;;;;;;;5056455;28;7047;-68
2023/03/15 08:01:58;;;;;;;;;;;;;;;;;;5056462;28;7061;-68
2023/03/15 08:04:24;;;;;;;;;;;;;;;;;;5060448;28;7411;-68
2023/03/15 08:06:49;;;;;;;;;;;;;;;;;;5056568;28;7024;-68
2023/03/15 08:09:15;;;;;;;;;;;;;;;;;;5056174;28;6944;-68
2023/03/15 08:12:09;;;;;;;;;;;;;;;;;;5056127;28;7186;-68
2023/03/15 08:14:36;;;;;;;;;;;;;;;;;;5056464;28;7139;-69
2023/03/15 08:17:02;;;;;;;;;;;;;;;;;;5055308;28;7211;-68
2023/03/15 08:19:27;;;;;;;;;;;;;;;;;;5035822;28;7084;-68
2023/03/15 08:22:22;;;;;;;;;;;;;;;;;;5034559;28;7182;-68
2023/03/15 08:24:49;;;;;;;;;;;;;;;;;;5037536;28;6946;-69
2023/03/15 08:27:14;;;;;;;;;;;;;;;;;;5018593;28;8800;-71
2023/03/15 08:29:40;;;;;;;;;;;;;;;;;;5036613;28;7311;-71
2023/03/15 08:32:27;;;;;;;;;;;;;;;;;;5035696;28;6954;-72
2023/03/15 08:37:55;;;;;;;;;;;;;;;;;;5035299;28;6704;-72
2023/03/15 08:40:24;;;;;;;;;;;;;;;;;;5035550;28;7066;-72
2023/03/15 08:43:23;;;;;;;;;;;;;;;;;;5038386;28;7148;-72
2023/03/15 08:45:49;;;;;;;;;;;;;;;;;;5055463;28;7077;-72
2023/03/15 08:48:15;;;;;;;;;;;;;;;;;;5054870;28;7446;-72
2023/03/15 08:50:43;;;;;;;;;;;;;;;;;;5054047;28;8307;-72
2023/03/15 08:53:09;;;;;;;;;;;;;;;;;;5055321;28;7191;-72
2023/03/15 08:55:36;;;;;;;;;;;;;;;;;;5055309;28;7296;-72
2023/03/15 08:58:03;;;;;;;;;;;;;;;;;;5050818;28;7140;-72
2023/03/15 09:00:29;;;;;;;;;;;;;;;;;;5046501;28;7471;-72
2023/03/15 09:02:54;;;;;;;;;;;;;;;;;;5054947;28;7156;-72
2023/03/15 09:05:21;;;;;;;;;;;;;;;;;;5055137;28;7093;-72
2023/03/15 09:08:20;;;;;;;;;;;;;;;;;;5054820;28;6985;-72
2023/03/15 09:10:45;;;;;;;;;;;;;;;;;;5054942;28;7114;-72
2023/03/15 09:13:11;;;;;;;;;;;;;;;;;;5055891;28;6940;-72
2023/03/15 09:18:40;;;;;;;;;;;;;;;;;;5054930;28;7020;-70
2023/03/15 09:21:06;;;;;;;;;;;;;;;;;;5054856;28;7152;-70
2023/03/15 09:26:48;;;;;;;;;;;;;;;;;;5054559;28;6984;-70
2023/03/15 09:29:14;;;;;;;;;;;;;;;;;;5054652;28;6927;-70
2023/03/15 09:31:39;;;;;;;;;;;;;;;;;;5057231;28;7183;-70
2023/03/15 09:34:16;;;;;;;;;;;;;;;;;;5054337;28;7098;-70
2023/03/15 09:36:41;;;;;;;;;;;;;;;;;;5054617;28;6987;-70
2023/03/15 09:39:07;;;;;;;;;;;;;;;;;;5054571;28;7081;-70
2023/03/15 09:41:43;;;;;;;;;;;;;;;;;;5054280;28;7360;-70
2023/03/15 09:44:28;;;;;;;;;;;;;;;;;;5055395;28;9062;-70
2023/03/15 09:50:16;;;;;;;;;;;;;;;;;;5056499;28;6693;-70
2023/03/15 09:55:47;;;;;;;;;;;;;;;;;;5054206;28;6979;-70
2023/03/15 09:58:33;;;;;;;;;;;;;;;;;;5054367;28;7051;-70
2023/03/15 10:01:03;;;;;;;;;;;;;;;;;;5058054;28;7320;-70
2023/03/15 10:03:34;;;;;;;;;;;;;;;;;;5056346;28;6925;-70
2023/03/15 10:15:26;;;;;;;;;;;;;;;;;;5054086;28;6936;-70
2023/03/15 10:17:58;;;;;;;;;;;;;;;;;;5055915;28;6973;-70
2023/03/15 10:20:26;;;;;;;;;;;;;;;;;;5054861;28;6954;-70
2023/03/15 10:23:20;;;;;;;;;;;;;;;;;;5057874;28;7268;-69
2023/03/15 10:25:50;;;;;;;;;;;;;;;;;;5054537;28;7416;-69
2023/03/15 10:28:45;;;;;;;;;;;;;;;;;;5057792;28;7983;-69
2023/03/15 10:31:13;;;;;;;;;;;;;;;;;;5054004;28;7333;-69
2023/03/15 10:33:40;;;;;;;;;;;;;;;;;;5054005;28;6915;-70
2023/03/15 10:39:10;;;;;;;;;;;;;;;;;;5057680;28;6807;-70
2023/03/15 10:41:38;;;;;;;;;;;;;;;;;;5054072;28;7382;-70
2023/03/15 10:44:24;;;;;;;;;;;;;;;;;;5053899;28;7232;-69
2023/03/15 10:46:59;;;;;;;;;;;;;;;;;;5057599;28;7090;-70
2023/03/15 10:49:59;;;;;;;;;;;;;;;;;;5032150;28;7027;-70
2023/03/15 10:52:50;;;;;;;;;;;;;;;;;;5036382;28;7809;-70
2023/03/15 10:58:19;;;;;;;;;;;;;;;;;;5051119;28;6816;-70
2023/03/15 11:01:06;;;;;;;;;;;;;;;;;;5038858;28;7240;-69
2023/03/15 11:03:32;;;;;;;;;;;;;;;;;;5032829;28;7182;-70
2023/03/15 11:05:59;;;;;;;;;;;;;;;;;;5050398;28;7047;-70
2023/03/15 11:08:42;;;;;;;;;;;;;;;;;;5047010;28;7080;-70
2023/03/15 11:11:08;;;;;;;;;;;;;;;;;;5055789;28;7135;-70
2023/03/15 11:13:39;;;;;;;;;;;;;;;;;;5055840;28;7554;-70
2023/03/15 11:19:27;;;;;;;;;;;;;;;;;;5056566;28;6756;-70
2023/03/15 11:21:55;;;;;;;;;;;;;;;;;;5057223;28;7080;-70
2023/03/15 11:24:29;;;;;;;;;;;;;;;;;;5057147;28;7174;-70
2023/03/15 11:26:56;;;;;;;;;;;;;;;;;;5056830;28;7215;-70
2023/03/15 11:29:37;;;;;;;;;;;;;;;;;;5045743;28;7169;-70
2023/03/15 11:38:34;;;;;;;;;;;;;;;;;;5038357;28;6992;-71
2023/03/15 11:41:04;;;;;;;;;;;;;;;;;;5037147;28;7266;-70
2023/03/15 11:43:55;;;;;;;;;;;;;;;;;;5036684;28;7156;-70
2023/03/15 11:46:32;;;;;;;;;;;;;;;;;;5036393;28;7187;-70
2023/03/15 11:51:47;;;;;;;;;;;;;;;;;;5057132;28;6965;-70
2023/03/15 11:54:29;;;;;;;;;;;;;;;;;;5056269;28;7117;-70
2023/03/15 11:56:56;;;;;;;;;;;;;;;;;;5056208;28;7153;-70
2023/03/15 11:59:36;;;;;;;;;;;;;;;;;;5045747;28;7131;-70
2023/03/15 12:02:13;;;;;;;;;;;;;;;;;;5036127;28;7911;-69
2023/03/15 12:04:41;;;;;;;;;;;;;;;;;;5036140;28;7813;-70
2023/03/15 12:10:31;;;;;;;;;;;;;;;;;;5052344;28;7085;-70
2023/03/15 12:13:13;;;;;;;;;;;;;;;;;;5053802;28;7063;-70
2023/03/15 12:15:38;;;;;;;;;;;;;;;;;;5053762;28;7399;-70
2023/03/15 12:18:05;;;;;;;;;;;;;;;;;;5055920;28;7158;-70
2023/03/15 12:20:39;;;;;;;;;;;;;;;;;;5036905;28;6862;-70
2023/03/15 12:26:32;;;;;;;;;;;;;;;;;;5035687;28;7053;-70
2023/03/15 12:28:57;;;;;;;;;;;;;;;;;;5043133;28;6972;-70
2023/03/15 12:36:59;;;;;;;;;;;;;;;;;;5055969;28;6795;-69
2023/03/15 12:39:50;;;;;;;;;;;;;;;;;;5055036;28;6995;-70
2023/03/15 12:42:51;;;;;;;;;;;;;;;;;;5035236;28;7160;-69
2023/03/15 12:45:18;;;;;;;;;;;;;;;;;;5027723;28;7326;-69
2023/03/15 12:48:17;;;;;;;;;;;;;;;;;;5014715;28;7048;-69
2023/03/15 12:50:56;;;;;;;;;;;;;;;;;;4940365;28;7051;-70
2023/03/15 12:56:32;;;;;;;;;;;;;;;;;;4955237;28;6972;-70
2023/03/15 12:59:25;;;;;;;;;;;;;;;;;;4954710;28;6928;-70
2023/03/15 13:02:12;;;;;;;;;;;;;;;;;;4935838;29;7088;-70
2023/03/15 13:04:38;;;;;;;;;;;;;;;;;;4935807;29;8970;-69
2023/03/15 13:07:22;;;;;;;;;;;;;;;;;;4936006;29;7310;-69
2023/03/15 13:09:48;;;;;;;;;;;;;;;;;;4935680;29;6944;-69
2023/03/15 13:15:23;;;;;;;;;;;;;;;;;;4935651;29;7468;-69
2023/03/15 13:17:49;;;;;;;;;;;;;;;;;;4951620;28;7168;-69
2023/03/15 13:20:35;;;;;;;;;;;;;;;;;;4936437;29;7490;-69
2023/03/15 13:23:13;;;;;;;;;;;;;;;;;;4936711;29;7144;-72
2023/03/15 13:26:01;;;;;;;;;;;;;;;;;;4936477;29;7128;-72
2023/03/15 13:28:47;;;;;;;;;;;;;;;;;;5034662;28;7060;-72
2023/03/15 13:31:18;;;;;;;;;;;;;;;;;;5034308;28;7262;-72
2023/03/15 13:34:10;;;;;;;;;;;;;;;;;;5034248;28;7997;-72
2023/03/15 13:36:47;;;;;;;;;;;;;;;;;;5035366;28;7205;-72
2023/03/15 13:39:29;;;;;;;;;;;;;;;;;;5039462;28;6956;-72
2023/03/15 13:41:57;;;;;;;;;;;;;;;;;;5054661;28;7219;-72
2023/03/15 13:44:46;;;;;;;;;;;;;;;;;;5054574;28;7162;-73
2023/03/15 13:47:22;;;;;;;;;;;;;;;;;;5036306;28;8621;-73
2023/03/15 13:50:08;;;;;;;;;;;;;;;;;;5054589;28;7122;-73
2023/03/15 13:52:33;;;;;;;;;;;;;;;;;;5054077;28;7065;-73
2023/03/15 13:55:15;;;;;;;;;;;;;;;;;;5054427;28;7057;-72
2023/03/15 13:57:41;;;;;;;;;;;;;;;;;;5056141;28;7214;-73
2023/03/15 14:00:19;;;;;;;;;;;;;;;;;;5049843;28;6952;-73
2023/03/15 14:02:47;;;;;;;;;;;;;;;;;;5053970;28;7131;-73
2023/03/15 14:05:28;;;;;;;;;;;;;;;;;;5054397;28;7183;-72
2023/03/15 14:10:42;;;;;;;;;;;;;;;;;;5054939;28;6935;-74
2023/03/15 14:13:37;;;;;;;;;;;;;;;;;;5046113;28;6982;-73
2023/03/15 14:16:04;;;;;;;;;;;;;;;;;;5040632;28;7368;-74
2023/03/15 14:18:38;;;;;;;;;;;;;;;;;;5034838;28;8464;-74
2023/03/15 14:21:15;;;;;;;;;;;;;;;;;;5038249;28;7045;-74
2023/03/15 14:29:46;;;;;;;;;;;;;;;;;;5038100;28;6784;-74
2023/03/15 14:38:23;;;;;;;;;;;;;;;;;;5037448;28;7072;-74
2023/03/15 14:40:50;;;;;;;;;;;;;;;;;;5054062;28;7214;-74
2023/03/15 14:43:26;;;;;;;;;;;;;;;;;;5058029;28;6957;-74
2023/03/15 14:45:51;;;;;;;;;;;;;;;;;;5057482;28;7186;-74
2023/03/15 14:48:34;;;;;;;;;;;;;;;;;;5057529;28;7037;-74
2023/03/15 14:51:00;;;;;;;;;;;;;;;;;;5039887;28;6977;-74
2023/03/15 14:53:40;;;;;;;;;;;;;;;;;;5037583;28;7170;-74
2023/03/15 14:56:07;;;;;;;;;;;;;;;;;;5037605;28;7036;-74
2023/03/15 14:58:35;;;;;;;;;;;;;;;;;;5037529;28;7248;-74
2023/03/15 15:01:04;;;;;;;;;;;;;;;;;;5057468;28;7069;-72
2023/03/15 15:03:42;;;;;;;;;;;;;;;;;;5057793;28;7410;-71
2023/03/15 15:12:14;;;;;;;;;;;;;;;;;;5057055;28;6935;-72
2023/03/15 15:14:41;;;;;;;;;;;;;;;;;;5058845;28;7218;-72
2023/03/15 15:17:07;;;;;;;;;;;;;;;;;;5057185;28;7403;-72
2023/03/15 15:19:41;;;;;;;;;;;;;;;;;;5062976;28;7316;-71
2023/03/15 15:22:09;;;;;;;;;;;;;;;;;;5057696;28;7277;-71
2023/03/15 15:24:35;;;;;;;;;;;;;;;;;;5060200;28;6923;-71
2023/03/15 15:27:24;;;;;;;;;;;;;;;;;;5056978;28;7350;-71
2023/03/15 15:29:51;;;;;;;;;;;;;;;;;;5057821;28;7123;-71
2023/03/15 15:32:27;;;;;;;;;;;;;;;;;;5057738;28;7153;-72
2023/03/15 15:34:53;;;;;;;;;;;;;;;;;;5021480;28;7096;-72
2023/03/15 15:37:21;;;;;;;;;;;;;;;;;;5020061;28;7089;-72
2023/03/15 15:39:47;;;;;;;;;;;;;;;;;;5023287;28;6859;-72
2023/03/15 15:42:23;;;;;;;;;;;;;;;;;;5023279;28;8413;-71
2023/03/15 15:44:49;;;;;;;;;;;;;;;;;;5049804;28;7080;-71
2023/03/15 15:47:14;;;;;;;;;;;;;;;;;;5019268;28;8394;-72
2023/03/15 15:49:40;;;;;;;;;;;;;;;;;;5018869;28;8390;-71
2023/03/15 15:55:12;;;;;;;;;;;;;;;;;;5037338;28;6748;-72
2023/03/15 15:57:41;;;;;;;;;;;;;;;;;;5019552;28;7157;-72
2023/03/15 16:00:12;;;;;;;;;;;;;;;;;;5038798;28;8791;-71
2023/03/15 16:02:38;;;;;;;;;;;;;;;;;;5034667;28;8421;-71
2023/03/15 16:08:13;;;;;;;;;;;;;;;;;;5036221;28;6706;-71
2023/03/15 16:11:05;;;;;;;;;;;;;;;;;;5034965;28;7148;-71
2023/03/15 16:13:31;;;;;;;;;;;;;;;;;;5051401;28;7086;-71
2023/03/15 16:16:01;;;;;;;;;;;;;;;;;;5052561;28;6973;-71
2023/03/15 16:18:27;;;;;;;;;;;;;;;;;;5034627;28;8378;-71
2023/03/15 16:21:19;;;;;;;;;;;;;;;;;;5051306;28;7153;-71
2023/03/15 16:23:50;;;;;;;;;;;;;;;;;;5054643;28;7036;-71
2023/03/15 16:26:16;;;;;;;;;;;;;;;;;;5038581;28;8413;-71
2023/03/15 16:29:01;;;;;;;;;;;;;;;;;;5037892;28;9494;-71
2023/03/15 16:31:26;;;;;;;;;;;;;;;;;;5054655;28;7252;-71
2023/03/15 16:33:52;;;;;;;;;;;;;;;;;;5054357;28;8504;-71
2023/03/15 16:39:22;;;;;;;;;;;;;;;;;;5055453;28;6922;-71
2023/03/15 16:41:48;;;;;;;;;;;;;;;;;;5037525;28;7062;-71
2023/03/15 16:44:21;;;;;;;;;;;;;;;;;;5054199;28;7156;-71
2023/03/15 16:46:47;;;;;;;;;;;;;;;;;;5055556;28;7114;-71
2023/03/15 16:49:12;;;;;;;;;;;;;;;;;;5055491;28;7193;-72
2023/03/15 16:51:41;;;;;;;;;;;;;;;;;;5055593;28;6947;-72
2023/03/15 16:54:07;;;;;;;;;;;;;;;;;;5055314;28;6954;-72
2023/03/15 16:56:35;;;;;;;;;;;;;;;;;;5055363;28;7133;-72
2023/03/15 16:59:02;;;;;;;;;;;;;;;;;;5055353;28;7045;-72
2023/03/15 17:04:37;;;;;;;;;;;;;;;;;;5027794;28;6739;-69
2023/03/15 17:07:02;;;;;;;;;;;;;;;;;;5016011;28;7466;-71
2023/03/15 17:09:27;;;;;;;;;;;;;;;;;;5015313;28;7147;-71
2023/03/15 17:11:54;;;;;;;;;;;;;;;;;;5015347;28;7121;-72
2023/03/15 17:14:34;;;;;;;;;;;;;;;;;;5015349;28;7186;-72
2023/03/15 17:17:00;;;;;;;;;;;;;;;;;;5015227;28;7150;-72
2023/03/15 17:19:25;;;;;;;;;;;;;;;;;;5015287;28;7115;-72
2023/03/15 17:22:23;;;;;;;;;;;;;;;;;;5017979;28;7000;-71
2023/03/15 17:24:49;;;;;;;;;;;;;;;;;;5014829;28;7195;-71
2023/03/15 17:33:12;;;;;;;;;;;;;;;;;;5015067;28;7148;-71
2023/03/15 17:35:55;;;;;;;;;;;;;;;;;;5016856;28;6955;-72
2023/03/15 17:38:26;;;;;;;;;;;;;;;;;;5015414;28;7140;-72
2023/03/15 17:41:04;;;;;;;;;;;;;;;;;;5014804;28;7010;-72
2023/03/15 17:43:30;;;;;;;;;;;;;;;;;;5006666;28;7168;-72
2023/03/15 17:45:55;;;;;;;;;;;;;;;;;;4996439;28;7362;-72
2023/03/15 17:48:22;;;;;;;;;;;;;;;;;;4996743;28;6897;-72
2023/03/15 17:50:47;;;;;;;;;;;;;;;;;;4998112;28;7004;-72
2023/03/15 17:59:18;;;;;;;;;;;;;;;;;;5008794;28;7437;-72
2023/03/15 18:01:47;;;;;;;;;;;;;;;;;;5004050;28;7974;-71
2023/03/15 18:04:19;;;;;;;;;;;;;;;;;;5029162;28;7072;-71
2023/03/15 18:06:44;;;;;;;;;;;;;;;;;;5034736;28;7040;-71
2023/03/15 18:09:14;;;;;;;;;;;;;;;;;;5051125;28;7355;-72
2023/03/15 18:11:42;;;;;;;;;;;;;;;;;;5038354;28;6933;-72
2023/03/15 18:16:58;;;;;;;;;;;;;;;;;;5054426;28;7186;-72
2023/03/15 18:19:26;;;;;;;;;;;;;;;;;;5053789;28;7572;-72
2023/03/15 18:21:51;;;;;;;;;;;;;;;;;;5054281;28;7077;-72
2023/03/15 18:24:17;;;;;;;;;;;;;;;;;;5054045;28;7933;-72
2023/03/15 18:26:56;;;;;;;;;;;;;;;;;;5053763;28;7298;-71
2023/03/15 18:29:24;;;;;;;;;;;;;;;;;;5037472;28;8400;-71
2023/03/15 18:31:50;;;;;;;;;;;;;;;;;;5056153;28;7153;-71
2023/03/15 18:34:40;;;;;;;;;;;;;;;;;;5035284;28;7178;-71
2023/03/15 18:37:06;;;;;;;;;;;;;;;;;;5049776;28;7039;-69
2023/03/15 18:39:31;;;;;;;;;;;;;;;;;;5057604;28;7323;-69
2023/03/15 18:44:59;;;;;;;;;;;;;;;;;;5053738;28;6937;-69
2023/03/15 18:47:25;;;;;;;;;;;;;;;;;;5053916;28;7138;-69
2023/03/15 18:49:59;;;;;;;;;;;;;;;;;;5054050;28;7156;-69
2023/03/15 18:52:24;;;;;;;;;;;;;;;;;;5054025;28;7299;-69
2023/03/15 18:54:51;;;;;;;;;;;;;;;;;;5053778;28;7371;-68
2023/03/15 18:57:18;;;;;;;;;;;;;;;;;;5054599;28;7106;-68
2023/03/15 18:59:45;;;;;;;;;;;;;;;;;;5053734;28;7252;-71
2023/03/15 19:02:10;;;;;;;;;;;;;;;;;;5033902;28;6950;-71
2023/03/15 19:04:36;;;;;;;;;;;;;;;;;;5033863;28;6953;-71
2023/03/15 19:07:01;;;;;;;;;;;;;;;;;;5036499;28;7091;-71
2023/03/15 19:09:27;;;;;;;;;;;;;;;;;;5037300;28;7125;-71
2023/03/15 19:12:00;;;;;;;;;;;;;;;;;;5039040;28;7006;-71
2023/03/15 19:17:28;;;;;;;;;;;;;;;;;;5036953;28;6959;-71
2023/03/15 19:19:54;;;;;;;;;;;;;;;;;;5020157;28;7149;-71
2023/03/15 19:22:21;;;;;;;;;;;;;;;;;;5037987;28;7041;-71
2023/03/15 19:24:47;;;;;;;;;;;;;;;;;;5037384;28;7388;-71
2023/03/15 19:27:13;;;;;;;;;;;;;;;;;;5037144;28;7065;-71
2023/03/15 19:29:41;;;;;;;;;;;;;;;;;;5037851;28;7298;-71
2023/03/15 19:32:07;;;;;;;;;;;;;;;;;;5037022;28;7209;-71
2023/03/15 19:34:32;;;;;;;;;;;;;;;;;;5037725;28;7211;-71
2023/03/15 19:40:02;;;;;;;;;;;;;;;;;;5036595;28;6691;-71
2023/03/15 19:42:28;;;;;;;;;;;;;;;;;;5036761;28;7013;-71
2023/03/15 19:44:54;;;;;;;;;;;;;;;;;;5036752;28;7473;-71
2023/03/15 19:47:19;;;;;;;;;;;;;;;;;;5036682;28;7129;-71
2023/03/15 19:49:45;;;;;;;;;;;;;;;;;;5036609;28;7143;-71
2023/03/15 19:52:14;;;;;;;;;;;;;;;;;;5037800;28;7019;-71
2023/03/15 19:54:40;;;;;;;;;;;;;;;;;;5036561;28;7054;-71
2023/03/15 19:57:05;;;;;;;;;;;;;;;;;;5036448;28;6926;-71
2023/03/15 19:59:42;;;;;;;;;;;;;;;;;;5036942;28;6784;-70
2023/03/15 20:07:54;;;;;;;;;;;;;;;;;;4964306;28;7094;-71
2023/03/15 20:13:48;;;;;;;;;;;;;;;;;;4956329;28;6939;-67
2023/03/15 20:16:32;;;;;;;;;;;;;;;;;;4957816;28;6954;-67
2023/03/15 20:18:57;;;;;;;;;;;;;;;;;;4955670;28;7205;-67
2023/03/15 20:21:32;;;;;;;;;;;;;;;;;;4955933;28;6934;-67
2023/03/15 20:23:58;;;;;;;;;;;;;;;;;;4955890;28;7004;-67
2023/03/15 20:26:30;;;;;;;;;;;;;;;;;;4962960;28;6871;-67
2023/03/15 20:28:56;;;;;;;;;;;;;;;;;;4966476;28;7125;-67
2023/03/15 20:31:21;;;;;;;;;;;;;;;;;;4955428;28;7239;-67
2023/03/15 20:33:48;;;;;;;;;;;;;;;;;;4955320;28;7137;-67
2023/03/15 20:36:18;;;;;;;;;;;;;;;;;;4955312;28;7272;-67
2023/03/15 20:38:44;;;;;;;;;;;;;;;;;;4998409;28;7182;-67
2023/03/15 20:41:12;;;;;;;;;;;;;;;;;;5035694;28;7105;-67
2023/03/15 20:43:38;;;;;;;;;;;;;;;;;;5035760;28;7227;-67
2023/03/15 20:46:18;;;;;;;;;;;;;;;;;;5035787;28;7021;-68
2023/03/15 20:48:43;;;;;;;;;;;;;;;;;;5038361;28;7065;-67
2023/03/15 20:51:09;;;;;;;;;;;;;;;;;;5035578;28;7098;-67
2023/03/15 20:53:35;;;;;;;;;;;;;;;;;;5037264;28;7050;-67